Terminal Aerodrome Forecast
Issued by NWS

Home | Current Version | Previous Version | Text Only | Print | Product List | Glossary On
Versions: 1 2 3 4 5 6 7 8 9 10 11 12 13 14 15 16 17 18 19 20 21 22 23 24 25
000
FTUS43 KILX 270531
TAFCMI
TAF
KCMI 270531Z 2706/2806 20012KT P6SM SCT090
     FM271400 23014G20KT P6SM VCSH SCT040 BKN090
     FM271700 26015G22KT P6SM BKN050
     FM280000 28004KT P6SM SKC=

USA.gov is the U.S. government's official web portal to all federal, state and local government web resources and services.